createdAt,value
2018-07-05T00:00:02.515Z,0
2018-07-05T00:01:02.519Z,0
2018-07-05T00:02:02.492Z,0
2018-07-05T00:03:02.231Z,0
2018-07-05T00:04:02.261Z,0
2018-07-05T00:05:02.492Z,0
2018-07-05T00:06:02.487Z,0
2018-07-05T00:07:02.475Z,0
2018-07-05T00:08:02.472Z,0
2018-07-05T00:09:02.212Z,0
2018-07-05T00:10:02.201Z,0
2018-07-05T00:11:02.193Z,0
2018-07-05T00:12:02.447Z,0
2018-07-05T00:13:02.187Z,0
2018-07-05T00:14:02.445Z,0
2018-07-05T00:15:02.194Z,0
2018-07-05T00:16:02.175Z,0
2018-07-05T00:17:02.176Z,0
2018-07-05T00:18:02.171Z,0
2018-07-05T00:19:02.160Z,0
2018-07-05T00:20:02.431Z,0
2018-07-05T00:21:02.158Z,0
2018-07-05T00:22:02.198Z,0
2018-07-05T00:23:02.147Z,0
2018-07-05T00:24:02.403Z,0
2018-07-05T00:25:02.166Z,0
2018-07-05T00:26:02.134Z,0
2018-07-05T00:27:02.394Z,0
2018-07-05T00:28:02.391Z,0
2018-07-05T00:29:02.375Z,0
2018-07-05T00:30:02.389Z,0
2018-07-05T00:31:02.376Z,0
2018-07-05T00:32:02.370Z,0
2018-07-05T00:33:01.590Z,0
2018-07-05T00:34:02.091Z,0
2018-07-05T00:35:02.338Z,0
2018-07-05T00:36:01.831Z,0
2018-07-05T00:37:02.110Z,0
2018-07-05T00:38:02.343Z,0
2018-07-05T00:39:01.819Z,0
2018-07-05T00:40:02.323Z,0
2018-07-05T00:41:01.807Z,0
2018-07-05T00:42:02.316Z,0
2018-07-05T00:43:02.064Z,0
2018-07-05T00:44:02.068Z,0
2018-07-05T00:45:02.305Z,0
2018-07-05T00:46:02.048Z,0
2018-07-05T00:47:02.291Z,0
2018-07-05T00:48:02.289Z,0
2018-07-05T00:49:02.088Z,0
2018-07-05T00:50:02.295Z,0
2018-07-05T00:51:02.024Z,0
2018-07-05T00:52:02.270Z,0
2018-07-05T00:53:02.270Z,0
2018-07-05T00:54:02.267Z,0
2018-07-05T00:55:02.267Z,0
2018-07-05T00:56:02.256Z,0
2018-07-05T00:57:02.250Z,0
2018-07-05T00:58:02.254Z,0
2018-07-05T00:59:02.262Z,0
2018-07-05T01:00:02.237Z,0
2018-07-05T01:01:02.233Z,0
2018-07-05T01:02:02.233Z,0
2018-07-05T01:03:02.230Z,0
2018-07-05T01:04:01.961Z,0
2018-07-05T01:05:02.219Z,0
2018-07-05T01:06:02.216Z,0
2018-07-05T01:07:01.950Z,0
2018-07-05T01:08:01.949Z,0
2018-07-05T01:09:01.940Z,0
2018-07-05T01:10:01.936Z,0
2018-07-05T01:11:02.189Z,0
2018-07-05T01:12:01.673Z,0
2018-07-05T01:13:02.180Z,0
2018-07-05T01:14:01.921Z,0
2018-07-05T01:15:01.919Z,0
2018-07-05T01:16:01.907Z,0
2018-07-05T01:17:02.164Z,0
2018-07-05T01:18:02.183Z,0
2018-07-05T01:19:01.642Z,0
2018-07-05T01:20:02.146Z,0
2018-07-05T01:21:01.637Z,0
2018-07-05T01:22:02.147Z,0
2018-07-05T01:23:02.132Z,0
2018-07-05T01:24:02.130Z,0
2018-07-05T01:25:02.121Z,0
2018-07-05T01:26:02.127Z,0
2018-07-05T01:27:02.118Z,0
2018-07-05T01:28:02.112Z,0
2018-07-05T01:29:01.857Z,0
2018-07-05T01:30:01.855Z,0
2018-07-05T01:31:02.103Z,0
2018-07-05T01:32:01.840Z,0
2018-07-05T01:33:01.579Z,0
2018-07-05T01:34:01.831Z,0
2018-07-05T01:35:01.827Z,0
2018-07-05T01:36:02.075Z,0
2018-07-05T01:37:02.075Z,0
2018-07-05T01:38:02.069Z,0
2018-07-05T01:39:02.062Z,0
2018-07-05T01:40:01.809Z,0
2018-07-05T01:41:01.806Z,0
2018-07-05T01:42:02.052Z,0
2018-07-05T01:43:01.793Z,0
2018-07-05T01:44:02.053Z,0
2018-07-05T01:45:01.788Z,0
2018-07-05T01:46:01.779Z,0
2018-07-05T01:47:02.029Z,0
2018-07-05T01:48:02.023Z,0
2018-07-05T01:49:01.771Z,0
2018-07-05T01:50:02.012Z,0
2018-07-05T01:51:01.498Z,0
2018-07-05T01:52:02.006Z,0
2018-07-05T01:53:01.741Z,0
2018-07-05T01:54:02.000Z,0
2018-07-05T01:55:01.994Z,0
2018-07-05T01:56:01.988Z,0
2018-07-05T01:57:01.979Z,0
2018-07-05T01:58:01.722Z,0
2018-07-05T01:59:01.970Z,0
2018-07-05T02:00:01.719Z,0
2018-07-05T02:01:01.967Z,0
2018-07-05T02:02:01.701Z,0
2018-07-05T02:03:01.700Z,0
2018-07-05T02:04:01.942Z,0
2018-07-05T02:05:01.943Z,0
2018-07-05T02:06:01.683Z,0
2018-07-05T02:07:01.937Z,0
2018-07-05T02:08:01.671Z,0
2018-07-05T02:09:01.921Z,0
2018-07-05T02:10:01.663Z,0
2018-07-05T02:11:01.923Z,0
2018-07-05T02:12:01.656Z,0
2018-07-05T02:13:01.652Z,0
2018-07-05T02:14:01.914Z,0
2018-07-05T02:15:01.893Z,0
2018-07-05T02:16:01.965Z,0
2018-07-05T02:17:01.378Z,0
2018-07-05T02:18:01.928Z,0
2018-07-05T02:19:01.647Z,0
2018-07-05T02:20:01.619Z,0
2018-07-05T02:21:01.619Z,0
2018-07-05T02:22:01.863Z,4
2018-07-05T02:23:01.855Z,4
2018-07-05T02:24:01.855Z,0
2018-07-05T02:25:01.853Z,0
2018-07-05T02:26:01.839Z,4
2018-07-05T02:27:01.581Z,4
2018-07-05T02:28:01.836Z,0
2018-07-05T02:29:01.573Z,4
2018-07-05T02:30:01.826Z,4
2018-07-05T02:31:01.845Z,4
2018-07-05T02:32:01.822Z,8
2018-07-05T02:33:01.847Z,4
2018-07-05T02:34:01.807Z,4
2018-07-05T02:35:01.552Z,8
2018-07-05T02:36:01.800Z,8
2018-07-05T02:37:01.796Z,12
2018-07-05T02:38:01.795Z,12
2018-07-05T02:39:01.781Z,16
2018-07-05T02:40:01.789Z,12
2018-07-05T02:41:01.512Z,16
2018-07-05T02:42:01.765Z,20
2018-07-05T02:43:01.763Z,20
2018-07-05T02:44:01.504Z,24
2018-07-05T02:45:01.757Z,24
2018-07-05T02:46:01.501Z,28
2018-07-05T02:47:01.739Z,32
2018-07-05T02:48:01.478Z,40
2018-07-05T02:49:01.732Z,44
2018-07-05T02:50:01.722Z,48
2018-07-05T02:51:01.736Z,56
2018-07-05T02:52:01.723Z,60
2018-07-05T02:53:01.727Z,68
2018-07-05T02:54:01.706Z,76
2018-07-05T02:55:01.701Z,84
2018-07-05T02:56:01.696Z,92
2018-07-05T02:57:01.693Z,104
2018-07-05T02:58:01.440Z,112
2018-07-05T02:59:01.681Z,120
2018-07-05T03:00:01.686Z,132
2018-07-05T03:01:01.672Z,140
2018-07-05T03:02:01.411Z,152
2018-07-05T03:03:01.665Z,168
2018-07-05T03:04:01.649Z,180
2018-07-05T03:05:01.668Z,188
2018-07-05T03:06:01.652Z,200
2018-07-05T03:07:01.722Z,208
2018-07-05T03:08:01.393Z,220
2018-07-05T03:09:01.376Z,232
2018-07-05T03:10:01.632Z,252
2018-07-05T03:11:01.680Z,272
2018-07-05T03:12:01.626Z,288
2018-07-05T03:13:01.610Z,304
2018-07-05T03:14:01.354Z,324
2018-07-05T03:15:01.607Z,344
2018-07-05T03:16:01.909Z,364
2018-07-05T03:17:01.333Z,384
2018-07-05T03:18:01.593Z,408
2018-07-05T03:19:01.580Z,424
2018-07-05T03:20:01.320Z,444
2018-07-05T03:21:01.572Z,464
2018-07-05T03:22:01.571Z,484
2018-07-05T03:23:01.567Z,504
2018-07-05T03:24:01.566Z,532
2018-07-05T03:25:01.291Z,564
2018-07-05T03:26:01.585Z,592
2018-07-05T03:27:01.554Z,624
2018-07-05T03:28:01.284Z,660
2018-07-05T03:29:01.270Z,704
2018-07-05T03:30:01.277Z,744
2018-07-05T03:31:01.526Z,780
2018-07-05T03:32:01.276Z,816
2018-07-05T03:33:01.510Z,848
2018-07-05T03:34:01.505Z,892
2018-07-05T03:35:01.493Z,928
2018-07-05T03:36:01.495Z,976
2018-07-05T03:37:01.231Z,1024
2018-07-05T03:38:01.482Z,1072
2018-07-05T03:39:00.964Z,1112
2018-07-05T03:40:01.211Z,1148
2018-07-05T03:41:01.216Z,1184
2018-07-05T03:42:01.464Z,1224
2018-07-05T03:43:01.456Z,1264
2018-07-05T03:44:01.456Z,1308
2018-07-05T03:45:01.189Z,1352
2018-07-05T03:46:01.188Z,1392
2018-07-05T03:47:01.431Z,1436
2018-07-05T03:48:01.443Z,1476
2018-07-05T03:49:01.427Z,1512
2018-07-05T03:50:01.423Z,1552
2018-07-05T03:51:01.170Z,1588
2018-07-05T03:52:01.186Z,1620
2018-07-05T03:53:00.903Z,1656
2018-07-05T03:54:01.403Z,1684
2018-07-05T03:55:01.403Z,1712
2018-07-05T03:56:01.402Z,1744
2018-07-05T03:57:01.142Z,1768
2018-07-05T03:58:01.385Z,1796
2018-07-05T03:59:01.385Z,1824
2018-07-05T04:00:00.862Z,1852
2018-07-05T04:01:01.368Z,1876
2018-07-05T04:02:01.106Z,1900
2018-07-05T04:03:01.364Z,1924
2018-07-05T04:04:01.101Z,1952
2018-07-05T04:05:00.835Z,1972
2018-07-05T04:06:01.348Z,2000
2018-07-05T04:07:01.342Z,2032
2018-07-05T04:08:01.334Z,2064
2018-07-05T04:09:01.326Z,2096
2018-07-05T04:10:01.332Z,2136
2018-07-05T04:11:00.804Z,2176
2018-07-05T04:12:01.065Z,2216
2018-07-05T04:13:01.315Z,2256
2018-07-05T04:14:01.050Z,2292
2018-07-05T04:15:01.044Z,2332
2018-07-05T04:16:01.190Z,2376
2018-07-05T04:17:01.306Z,2416
2018-07-05T04:18:01.026Z,2460
2018-07-05T04:19:01.287Z,2504
2018-07-05T04:20:01.285Z,2548
2018-07-05T04:21:01.273Z,2592
2018-07-05T04:22:01.264Z,2640
2018-07-05T04:23:01.256Z,2692
2018-07-05T04:24:01.185Z,2736
2018-07-05T04:25:01.324Z,2780
2018-07-05T04:26:01.250Z,2820
2018-07-05T04:27:00.985Z,2856
2018-07-05T04:28:00.724Z,2884
2018-07-05T04:29:00.976Z,2912
2018-07-05T04:30:01.227Z,2936
2018-07-05T04:31:00.967Z,2964
2018-07-05T04:32:01.220Z,2992
2018-07-05T04:33:01.211Z,3016
2018-07-05T04:34:00.956Z,3036
2018-07-05T04:35:01.214Z,3052
2018-07-05T04:36:01.202Z,3068
2018-07-05T04:37:00.940Z,3088
2018-07-05T04:38:00.940Z,3116
2018-07-05T04:39:01.197Z,3156
2018-07-05T04:40:01.181Z,3192
2018-07-05T04:41:01.180Z,3236
2018-07-05T04:42:00.923Z,3276
2018-07-05T04:43:00.913Z,3312
2018-07-05T04:44:01.171Z,3344
2018-07-05T04:45:01.155Z,3376
2018-07-05T04:46:01.151Z,3408
2018-07-05T04:47:01.159Z,3444
2018-07-05T04:48:01.498Z,3476
2018-07-05T04:49:01.146Z,3500
2018-07-05T04:50:01.149Z,3532
2018-07-05T04:51:01.136Z,3556
2018-07-05T04:52:01.134Z,3584
2018-07-05T04:53:00.870Z,3620
2018-07-05T04:54:00.611Z,3676
2018-07-05T04:55:01.126Z,3784
2018-07-05T04:56:01.128Z,3964
2018-07-05T04:57:01.119Z,4144
2018-07-05T04:58:01.112Z,4216
2018-07-05T04:59:00.850Z,4156
2018-07-05T05:00:00.848Z,3972
2018-07-05T05:01:01.110Z,3848
2018-07-05T05:02:00.845Z,3840
2018-07-05T05:03:00.840Z,3852
2018-07-05T05:04:01.086Z,3868
2018-07-05T05:05:01.082Z,3868
2018-07-05T05:06:01.093Z,3864
2018-07-05T05:07:00.824Z,3856
2018-07-05T05:08:00.822Z,3836
2018-07-05T05:09:00.817Z,3828
2018-07-05T05:10:01.072Z,3820
2018-07-05T05:11:00.563Z,3828
2018-07-05T05:12:01.065Z,3840
2018-07-05T05:13:00.802Z,3852
2018-07-05T05:14:01.062Z,3860
2018-07-05T05:15:01.376Z,3860
2018-07-05T05:16:01.054Z,3856
2018-07-05T05:17:01.051Z,3836
2018-07-05T05:18:01.047Z,3816
2018-07-05T05:19:01.387Z,3796
2018-07-05T05:20:00.792Z,3776
2018-07-05T05:21:00.785Z,3760
2018-07-05T05:22:01.042Z,3760
2018-07-05T05:23:00.782Z,3760
2018-07-05T05:24:01.033Z,3772
2018-07-05T05:25:00.783Z,3788
2018-07-05T05:26:01.030Z,3792
2018-07-05T05:27:00.513Z,3796
2018-07-05T05:28:01.024Z,3792
2018-07-05T05:29:01.027Z,3784
2018-07-05T05:30:01.254Z,3776
2018-07-05T05:31:00.762Z,3776
2018-07-05T05:32:00.759Z,3748
2018-07-05T05:33:00.757Z,3740
2018-07-05T05:34:00.759Z,3740
2018-07-05T05:35:01.009Z,3784
2018-07-05T05:36:00.754Z,3836
2018-07-05T05:37:00.751Z,3816
2018-07-05T05:38:00.745Z,3788
2018-07-05T05:39:01.264Z,3804
2018-07-05T05:40:00.744Z,3868
2018-07-05T05:41:00.486Z,3856
2018-07-05T05:42:00.995Z,3728
2018-07-05T05:43:00.738Z,3760
2018-07-05T05:44:00.997Z,3768
2018-07-05T05:45:00.988Z,3768
2018-07-05T05:46:00.479Z,3792
2018-07-05T05:47:00.728Z,3884
2018-07-05T05:48:00.739Z,3808
2018-07-05T05:49:00.984Z,3820
2018-07-05T05:50:00.466Z,3872
2018-07-05T05:51:00.981Z,3848
2018-07-05T05:52:00.981Z,3812
2018-07-05T05:53:00.720Z,3820
2018-07-05T05:54:00.977Z,3832
2018-07-05T05:55:00.716Z,3828
2018-07-05T05:56:00.972Z,3812
2018-07-05T05:57:00.969Z,3808
2018-07-05T05:58:00.709Z,3804
2018-07-05T05:59:00.968Z,3812
2018-07-05T06:00:00.703Z,3816
2018-07-05T06:01:00.967Z,3804
2018-07-05T06:02:00.971Z,3816
2018-07-05T06:03:00.960Z,3836
2018-07-05T06:04:00.699Z,3840
2018-07-05T06:05:00.452Z,3868
2018-07-05T06:06:00.960Z,3948
2018-07-05T06:07:00.954Z,4012
2018-07-05T06:08:01.067Z,3936
2018-07-05T06:09:00.957Z,3940
2018-07-05T06:10:00.953Z,3940
2018-07-05T06:11:00.694Z,3940
2018-07-05T06:12:00.951Z,3948
2018-07-05T06:13:00.963Z,3940
2018-07-05T06:14:00.952Z,3920
2018-07-05T06:15:00.695Z,3892
2018-07-05T06:16:00.970Z,3932
2018-07-05T06:17:00.695Z,3864
2018-07-05T06:18:00.948Z,3836
2018-07-05T06:19:00.690Z,3836
2018-07-05T06:20:00.945Z,3848
2018-07-05T06:21:00.943Z,3868
2018-07-05T06:22:00.684Z,3880
2018-07-05T06:23:00.684Z,3916
2018-07-05T06:24:00.679Z,3952
2018-07-05T06:25:00.930Z,3964
2018-07-05T06:26:00.936Z,3968
2018-07-05T06:27:00.679Z,3980
2018-07-05T06:28:00.943Z,3988
2018-07-05T06:29:00.678Z,4004
2018-07-05T06:30:00.678Z,4036
2018-07-05T06:31:00.943Z,4060
2018-07-05T06:32:00.674Z,4088
2018-07-05T06:33:00.683Z,4116
2018-07-05T06:34:00.934Z,4140
2018-07-05T06:35:00.934Z,4160
2018-07-05T06:36:00.160Z,4216
2018-07-05T06:37:00.675Z,4252
2018-07-05T06:38:00.676Z,4332
2018-07-05T06:39:00.925Z,4428
2018-07-05T06:40:00.942Z,5032
2018-07-05T06:41:00.674Z,5048
2018-07-05T06:42:00.921Z,6128
2018-07-05T06:43:00.928Z,15144
2018-07-05T06:44:00.926Z,41888
2018-07-05T06:45:00.674Z,46624
2018-07-05T06:46:00.932Z,48032
2018-07-05T06:47:00.928Z,49280
2018-07-05T06:48:00.928Z,47808
2018-07-05T06:49:00.931Z,48320
2018-07-05T06:50:00.676Z,49312
2018-07-05T06:51:00.418Z,49440
2018-07-05T06:52:00.932Z,50496
2018-07-05T06:53:00.790Z,51360
2018-07-05T06:54:00.936Z,51392
2018-07-05T06:55:00.940Z,52224
2018-07-05T06:56:00.938Z,52992
2018-07-05T06:57:00.425Z,50912
2018-07-05T06:58:00.685Z,50048
2018-07-05T06:59:00.943Z,51296
2018-07-05T07:00:00.953Z,51168
2018-07-05T07:01:00.443Z,51296
2018-07-05T07:02:00.955Z,52448
2018-07-05T07:03:00.961Z,53824
2018-07-05T07:04:00.964Z,54496
2018-07-05T07:05:00.724Z,57504
2018-07-05T07:06:00.730Z,59168
2018-07-05T07:07:00.475Z,58464
2018-07-05T07:08:01.087Z,61504
2018-07-05T07:09:00.997Z,58432
2018-07-05T07:10:00.750Z,53088
2018-07-05T07:11:00.760Z,53888
2018-07-05T07:12:01.015Z,56352
2018-07-05T07:13:01.019Z,52864
2018-07-05T07:14:01.033Z,50240
2018-07-05T07:15:00.782Z,52224
2018-07-05T07:16:01.286Z,52928
2018-07-05T07:17:01.052Z,54912
2018-07-05T07:18:00.550Z,56128
2018-07-05T07:19:00.811Z,52224
2018-07-05T07:20:01.077Z,51040
2018-07-05T07:21:01.110Z,53600
2018-07-05T07:22:00.834Z,52992
2018-07-05T07:23:01.106Z,51616
2018-07-05T07:24:01.123Z,53696
2018-07-05T07:25:01.120Z,53568
2018-07-05T07:26:01.125Z,53632
2018-07-05T07:27:00.884Z,54368
2018-07-05T07:28:01.145Z,55104
2018-07-05T07:29:00.900Z,57760
2018-07-05T07:30:01.172Z,55808
2018-07-05T07:31:01.175Z,54432
2018-07-05T07:32:01.581Z,59424
2018-07-05T07:33:00.936Z,61024
2018-07-05T07:34:01.203Z,60000
2018-07-05T07:35:00.959Z,60512
2018-07-05T07:36:00.964Z,60608
2018-07-05T07:37:01.233Z,60096
2018-07-05T07:38:00.995Z,59008
2018-07-05T07:39:01.265Z,58272
2018-07-05T07:40:01.003Z,58496
2018-07-05T07:41:01.282Z,60448
2018-07-05T07:42:01.282Z,60864
2018-07-05T07:43:01.294Z,63072
2018-07-05T07:44:01.303Z,64928
2018-07-05T07:45:01.314Z,63520
2018-07-05T07:46:01.324Z,65248
2018-07-05T07:47:01.076Z,65984
2018-07-05T07:48:01.338Z,64672
2018-07-05T07:49:01.368Z,63008
2018-07-05T07:50:01.364Z,62880
2018-07-05T07:51:01.121Z,62848
2018-07-05T07:52:01.389Z,61824
2018-07-05T07:53:01.149Z,56608
2018-07-05T07:54:01.154Z,55296
2018-07-05T07:55:01.161Z,39616
2018-07-05T07:56:00.921Z,14484
2018-07-05T07:57:01.445Z,6804
2018-07-05T07:58:01.193Z,6124
2018-07-05T07:59:01.466Z,5756
2018-07-05T08:00:01.218Z,5536
2018-07-05T08:01:01.228Z,5372
2018-07-05T08:02:01.241Z,5256
2018-07-05T08:03:01.508Z,5168
2018-07-05T08:04:01.517Z,5068
2018-07-05T08:05:01.272Z,4968
2018-07-05T08:06:01.549Z,4900
2018-07-05T08:07:01.543Z,4844
2018-07-05T08:08:01.814Z,4820
2018-07-05T08:09:01.569Z,4800
2018-07-05T08:10:01.581Z,4772
2018-07-05T08:11:01.345Z,4740
2018-07-05T08:12:01.344Z,4696
2018-07-05T08:13:01.357Z,4656
2018-07-05T08:14:01.621Z,4616
2018-07-05T08:15:01.714Z,4592
2018-07-05T08:16:01.643Z,4564
2018-07-05T08:17:01.392Z,4540
2018-07-05T08:18:01.403Z,4528
2018-07-05T08:19:01.411Z,4524
2018-07-05T08:20:01.695Z,4516
2018-07-05T08:21:01.685Z,4512
2018-07-05T08:22:01.696Z,4508
2018-07-05T08:23:01.699Z,4512
2018-07-05T08:24:01.717Z,4532
2018-07-05T08:25:01.710Z,4556
2018-07-05T08:26:01.469Z,4584
2018-07-05T08:27:01.746Z,4608
2018-07-05T08:28:01.225Z,4632
2018-07-05T08:29:01.765Z,4636
2018-07-05T08:30:01.754Z,4624
2018-07-05T08:31:01.755Z,4620
2018-07-05T08:32:01.764Z,4632
2018-07-05T08:33:01.771Z,4648
2018-07-05T08:34:01.788Z,4692
2018-07-05T08:35:01.779Z,4716
2018-07-05T08:36:01.803Z,4708
2018-07-05T08:37:01.800Z,4692
2018-07-05T08:38:01.471Z,4672
2018-07-05T08:39:01.560Z,4672
2018-07-05T08:40:01.820Z,4668
2018-07-05T08:41:01.839Z,4660
2018-07-05T08:42:01.834Z,4664
2018-07-05T08:43:01.579Z,4668
2018-07-05T08:44:01.837Z,4648
2018-07-05T08:45:01.982Z,4640
2018-07-05T08:46:01.857Z,4648
2018-07-05T08:47:01.865Z,4656
2018-07-05T08:48:01.877Z,4672
2018-07-05T08:49:01.868Z,4684
2018-07-05T08:50:01.874Z,4720
2018-07-05T08:51:01.622Z,4740
2018-07-05T08:52:01.885Z,4724
2018-07-05T08:53:01.883Z,4740
2018-07-05T08:54:01.632Z,4736
2018-07-05T08:55:01.641Z,4736
2018-07-05T08:56:01.917Z,4744
2018-07-05T08:57:01.655Z,4764
2018-07-05T08:58:01.914Z,4788
2018-07-05T08:59:01.915Z,4804
2018-07-05T09:00:01.928Z,4820
2018-07-05T09:01:01.673Z,4788
2018-07-05T09:02:01.931Z,4736
2018-07-05T09:03:01.948Z,4696
2018-07-05T09:04:01.682Z,4660
2018-07-05T09:05:01.698Z,4624
2018-07-05T09:06:01.962Z,4624
2018-07-05T09:07:01.958Z,4620
2018-07-05T09:08:01.709Z,4588
2018-07-05T09:09:01.707Z,4556
2018-07-05T09:10:01.734Z,4532
2018-07-05T09:11:01.980Z,4512
2018-07-05T09:12:02.248Z,4500
2018-07-05T09:13:01.727Z,4500
2018-07-05T09:14:01.740Z,4500
2018-07-05T09:15:02.032Z,4472
2018-07-05T09:16:02.006Z,4432
2018-07-05T09:17:02.006Z,4424
2018-07-05T09:18:02.447Z,4448
2018-07-05T09:19:01.756Z,4512
2018-07-05T09:20:01.767Z,4592
2018-07-05T09:21:02.023Z,4644
2018-07-05T09:22:01.773Z,4664
2018-07-05T09:23:01.793Z,4668
2018-07-05T09:24:01.791Z,4688
2018-07-05T09:25:02.044Z,4696
2018-07-05T09:26:02.047Z,4684
2018-07-05T09:27:01.797Z,4684
2018-07-05T09:28:01.821Z,4704
2018-07-05T09:29:01.803Z,4688
2018-07-05T09:30:02.074Z,4664
2018-07-05T09:31:01.830Z,4672
2018-07-05T09:32:02.080Z,4740
2018-07-05T09:33:02.098Z,4772
2018-07-05T09:34:02.088Z,4796
2018-07-05T09:35:01.836Z,4800
2018-07-05T09:36:02.129Z,4784
2018-07-05T09:37:02.113Z,4732
2018-07-05T09:38:01.879Z,4720
2018-07-05T09:39:01.595Z,4744
2018-07-05T09:40:01.855Z,4788
2018-07-05T09:41:02.121Z,4900
2018-07-05T09:42:02.140Z,4988
2018-07-05T09:43:01.867Z,5012
2018-07-05T09:44:01.615Z,4968
2018-07-05T09:45:02.135Z,4904
2018-07-05T09:46:01.882Z,4852
2018-07-05T09:47:02.086Z,5040
2018-07-05T09:48:02.140Z,5452
2018-07-05T09:49:02.163Z,5864
2018-07-05T09:50:01.646Z,5888
2018-07-05T09:51:02.169Z,5724
2018-07-05T09:52:02.164Z,5772
2018-07-05T09:53:01.659Z,5868
2018-07-05T09:54:01.664Z,5972
2018-07-05T09:55:01.923Z,6248
2018-07-05T09:56:02.189Z,6628
2018-07-05T09:57:02.190Z,6892
2018-07-05T09:58:02.355Z,7140
2018-07-05T09:59:01.949Z,7144
2018-07-05T10:00:01.951Z,7556
2018-07-05T10:01:02.212Z,7420
2018-07-05T10:02:01.958Z,7160
2018-07-05T10:03:02.225Z,7016
2018-07-05T10:04:01.982Z,6816
2018-07-05T10:05:02.233Z,6556
2018-07-05T10:06:02.248Z,6176
2018-07-05T10:07:02.248Z,6004
2018-07-05T10:08:01.481Z,5532
2018-07-05T10:09:01.742Z,5492
2018-07-05T10:10:02.265Z,6452
2018-07-05T10:11:01.755Z,6612
2018-07-05T10:12:02.277Z,6796
2018-07-05T10:13:02.647Z,6608
2018-07-05T10:14:02.386Z,6296
2018-07-05T10:15:02.290Z,6232
2018-07-05T10:16:02.293Z,6040
2018-07-05T10:17:02.302Z,5848
2018-07-05T10:18:02.307Z,5704
2018-07-05T10:19:02.094Z,5624
2018-07-05T10:20:02.062Z,5528
2018-07-05T10:21:02.060Z,5712
2018-07-05T10:22:02.063Z,5852
2018-07-05T10:23:02.080Z,5108
2018-07-05T10:24:02.076Z,4752
2018-07-05T10:25:01.827Z,4884
2018-07-05T10:26:01.832Z,5240
2018-07-05T10:27:02.628Z,5492
2018-07-05T10:28:02.100Z,6084
2018-07-05T10:29:02.101Z,6848
2018-07-05T10:30:02.372Z,7916
2018-07-05T10:31:02.378Z,9060
2018-07-05T10:32:02.394Z,10152
2018-07-05T10:33:02.667Z,11052
2018-07-05T10:34:01.870Z,11364
2018-07-05T10:35:02.131Z,11756
2018-07-05T10:36:02.396Z,11236
2018-07-05T10:37:02.398Z,11348
2018-07-05T10:38:02.406Z,11724
2018-07-05T10:39:02.408Z,11876
2018-07-05T10:40:02.162Z,11764
2018-07-05T10:41:02.421Z,11056
2018-07-05T10:42:02.428Z,10252
2018-07-05T10:43:02.175Z,9436
2018-07-05T10:44:02.442Z,8440
2018-07-05T10:45:02.450Z,7496
2018-07-05T10:46:02.617Z,6700
2018-07-05T10:47:02.447Z,6532
2018-07-05T10:48:02.458Z,6476
2018-07-05T10:49:02.205Z,6044
2018-07-05T10:50:02.210Z,5964
2018-07-05T10:51:02.474Z,6544
2018-07-05T10:52:02.474Z,6504
2018-07-05T10:53:01.971Z,6620
2018-07-05T10:54:02.490Z,7176
2018-07-05T10:55:02.233Z,7972
2018-07-05T10:56:02.504Z,8344
2018-07-05T10:57:02.506Z,8912
2018-07-05T10:58:02.508Z,8420
2018-07-05T10:59:02.512Z,8312
2018-07-05T11:00:02.528Z,8324
2018-07-05T11:01:02.627Z,8548
2018-07-05T11:02:02.537Z,8660
2018-07-05T11:03:02.536Z,8472
2018-07-05T11:04:02.280Z,8696
2018-07-05T11:05:02.562Z,8444
2018-07-05T11:06:02.039Z,8048
2018-07-05T11:07:02.301Z,7900
2018-07-05T11:08:02.321Z,7964
2018-07-05T11:09:02.564Z,8096
2018-07-05T11:10:02.054Z,8220
2018-07-05T11:11:02.579Z,8284
2018-07-05T11:12:02.329Z,7908
2018-07-05T11:13:02.334Z,7808
2018-07-05T11:14:02.594Z,7692
2018-07-05T11:15:02.607Z,7652
2018-07-05T11:16:02.346Z,7564
2018-07-05T11:17:02.355Z,7496
2018-07-05T11:18:02.362Z,7488
2018-07-05T11:19:02.364Z,7984
2018-07-05T11:20:02.622Z,8380
2018-07-05T11:21:02.845Z,8652
2018-07-05T11:22:02.637Z,8708
2018-07-05T11:23:02.643Z,8884
2018-07-05T11:24:02.129Z,8944
2018-07-05T11:25:02.651Z,9032
2018-07-05T11:26:02.392Z,9180
2018-07-05T11:27:02.667Z,9288
2018-07-05T11:28:02.660Z,9300
2018-07-05T11:29:02.661Z,9340
2018-07-05T11:30:02.676Z,9524
2018-07-05T11:31:02.674Z,9564
2018-07-05T11:32:02.424Z,9516
2018-07-05T11:33:02.686Z,9604
2018-07-05T11:34:02.430Z,9712
2018-07-05T11:35:02.439Z,9784
2018-07-05T11:36:02.705Z,9544
2018-07-05T11:37:02.711Z,9512
2018-07-05T11:38:02.455Z,9444
2018-07-05T11:39:02.720Z,9388
2018-07-05T11:40:02.721Z,9304
2018-07-05T11:41:02.469Z,9116
2018-07-05T11:42:02.481Z,9016
2018-07-05T11:43:02.738Z,8904
2018-07-05T11:44:02.818Z,8860
2018-07-05T11:45:02.747Z,8832
2018-07-05T11:46:02.495Z,8532
2018-07-05T11:47:02.765Z,8168
2018-07-05T11:48:03.267Z,7800
2018-07-05T11:49:02.775Z,7536
2018-07-05T11:50:02.780Z,7312
2018-07-05T11:51:02.787Z,7280
2018-07-05T11:52:02.533Z,7308
2018-07-05T11:53:02.800Z,7280
2018-07-05T11:54:02.796Z,7156
2018-07-05T11:55:02.882Z,7092
2018-07-05T11:56:02.566Z,7056
2018-07-05T11:57:02.562Z,7144
2018-07-05T11:58:02.569Z,7384
2018-07-05T11:59:02.824Z,7816
2018-07-05T12:00:02.830Z,8300
2018-07-05T12:01:02.832Z,8740
2018-07-05T12:02:02.399Z,8956
2018-07-05T12:03:02.832Z,9144
2018-07-05T12:04:02.621Z,9512
2018-07-05T12:05:02.603Z,10012
2018-07-05T12:06:02.880Z,10592
2018-07-05T12:07:02.607Z,11208
2018-07-05T12:08:02.618Z,11644
2018-07-05T12:09:02.884Z,11716
2018-07-05T12:10:02.885Z,11740
2018-07-05T12:11:02.887Z,11956
2018-07-05T12:12:02.902Z,12392
2018-07-05T12:13:02.900Z,12796
2018-07-05T12:14:02.904Z,13176
2018-07-05T12:15:02.913Z,13232
2018-07-05T12:16:02.924Z,13204
2018-07-05T12:17:02.922Z,13116
2018-07-05T12:18:02.670Z,13016
2018-07-05T12:19:02.416Z,13012
2018-07-05T12:20:02.945Z,13344
2018-07-05T12:21:02.941Z,13808
2018-07-05T12:22:02.441Z,14316
2018-07-05T12:23:02.441Z,14704
2018-07-05T12:24:03.246Z,15056
2018-07-05T12:25:02.711Z,15388
2018-07-05T12:26:02.966Z,15588
2018-07-05T12:27:02.982Z,15712
2018-07-05T12:28:02.729Z,15808
2018-07-05T12:29:03.048Z,15864
2018-07-05T12:30:02.998Z,15784
2018-07-05T12:31:03.005Z,15512
2018-07-05T12:32:02.749Z,15228
2018-07-05T12:33:03.013Z,15032
2018-07-05T12:34:02.758Z,14832
2018-07-05T12:35:03.029Z,14608
2018-07-05T12:36:03.043Z,14432
2018-07-05T12:37:03.031Z,14120
2018-07-05T12:38:03.086Z,14216
2018-07-05T12:39:03.048Z,14248
2018-07-05T12:40:02.802Z,14452
2018-07-05T12:41:03.056Z,14728
2018-07-05T12:42:02.813Z,15080
2018-07-05T12:43:03.078Z,15396
2018-07-05T12:44:03.082Z,15656
2018-07-05T12:45:03.084Z,15704
2018-07-05T12:46:02.830Z,15780
2018-07-05T12:47:03.102Z,15772
2018-07-05T12:48:02.853Z,15484
2018-07-05T12:49:03.120Z,15148
2018-07-05T12:50:02.862Z,14952
2018-07-05T12:51:02.869Z,14804
2018-07-05T12:52:02.972Z,14744
2018-07-05T12:53:03.134Z,14616
2018-07-05T12:54:02.635Z,14504
2018-07-05T12:55:02.894Z,14412
2018-07-05T12:56:03.161Z,14164
2018-07-05T12:57:03.170Z,13924
2018-07-05T12:58:03.174Z,13808
2018-07-05T12:59:02.925Z,13696
2018-07-05T13:00:02.932Z,13572
2018-07-05T13:01:02.942Z,13496
2018-07-05T13:02:02.950Z,13452
2018-07-05T13:03:02.948Z,13420
2018-07-05T13:04:03.475Z,13456
2018-07-05T13:05:02.965Z,13516
2018-07-05T13:06:03.226Z,13572
2018-07-05T13:07:03.232Z,13672
2018-07-05T13:08:02.980Z,13788
2018-07-05T13:09:03.238Z,13932
2018-07-05T13:10:03.248Z,14112
2018-07-05T13:11:03.260Z,14344
2018-07-05T13:12:03.270Z,14412
2018-07-05T13:13:03.271Z,14168
2018-07-05T13:14:03.031Z,13648
2018-07-05T13:15:03.282Z,13036
2018-07-05T13:16:03.293Z,12436
2018-07-05T13:17:03.289Z,11780
2018-07-05T13:18:03.293Z,11100
2018-07-05T13:19:03.058Z,10456
2018-07-05T13:20:03.316Z,9928
2018-07-05T13:21:03.058Z,9656
2018-07-05T13:22:03.318Z,9616
2018-07-05T13:23:03.330Z,9720
2018-07-05T13:24:03.346Z,9880
2018-07-05T13:25:03.089Z,10000
2018-07-05T13:26:03.089Z,10120
2018-07-05T13:27:03.100Z,10184
2018-07-05T13:28:02.843Z,10164
2018-07-05T13:29:03.358Z,10124
2018-07-05T13:30:03.108Z,10068
2018-07-05T13:31:03.115Z,9936